^^
Grace C. Lehan Memorial Weather Station Historical Data
Daily Summary for February 21, 2021 Units:  English    Metric   Both
Daily Weekly Monthly Yearly
  High: Low: Average:
Temperature: 83 °F 66.5 °F 75.2 °F
Dew Point: 70.7 °F 60.6 °F 65.2 °F
Humidity: 89% 57.9% 72%
Wind Speed: 5.5mph 0mph 1.1mph
Wind Gust: 13mph - -
Wind- - WNW
Pressure: 29.92 in 29.77 in -
Precipitation: 0.00 in    
 
 
Tabular Data for February 21, 2021
Time Temperature Dew Point Pressure Wind Wind Speed Wind Gust Humidity Rainfall Rate (Hourly) solar
00:04 74.8 °F 70.7 °F 29.84 in WNW 1.9 mph 4 mph 87% 0.00 in 0 W/m2
00:09 74.7 °F 70.6 °F 29.84 in WNW 1.1 mph 6 mph 87% 0.00 in 0 W/m2
00:14 74.6 °F 70.4 °F 29.84 in WNW 2.8 mph 12 mph 86.8% 0.00 in 0 W/m2
00:19 74.6 °F 69.5 °F 29.84 in NW 2.4 mph 12 mph 84.2% 0.00 in 0 W/m2
00:24 74.6 °F 68.9 °F 29.85 in NNW 1.6 mph 12 mph 82.4% 0.00 in 0 W/m2
00:29 74.7 °F 68.5 °F 29.85 in NNW 1.8 mph 12 mph 81% 0.00 in 0 W/m2
00:34 74.7 °F 67.9 °F 29.85 in NW 3.3 mph 13 mph 79.3% 0.00 in 0 W/m2
00:39 74.6 °F 66.7 °F 29.85 in NW 2.3 mph 13 mph 76.5% 0.00 in 0 W/m2
00:44 74.5 °F 65.8 °F 29.85 in NW 2.2 mph 13 mph 74.4% 0.00 in 0 W/m2
00:49 74.4 °F 65.6 °F 29.85 in NW 0.1 mph 13 mph 74% 0.00 in 0 W/m2
00:54 74.3 °F 65.5 °F 29.85 in NW 0.8 mph 13 mph 74% 0.00 in 0 W/m2
00:59 74.2 °F 65.2 °F 29.85 in NW 0.4 mph 13 mph 73.5% 0.00 in 0 W/m2
01:04 74.1 °F 65.1 °F 29.84 in NW 0.4 mph 13 mph 73.7% 0.00 in 0 W/m2
01:09 73.9 °F 64.7 °F 29.84 in NW 0.6 mph 5 mph 73% 0.00 in 0 W/m2
01:14 73.9 °F 64.7 °F 29.84 in NW 0.2 mph 5 mph 73% 0.00 in 0 W/m2
01:19 73.8 °F 64.6 °F 29.84 in Calm   5 mph 73% 0.00 in 0 W/m2
01:24 73.7 °F 64.5 °F 29.84 in Calm   5 mph 73% 0.00 in 0 W/m2
01:29 73.7 °F 64.5 °F 29.84 in Calm   5 mph 73% 0.00 in 0 W/m2
01:34 73.6 °F 64.4 °F 29.84 in Calm   5 mph 73% 0.00 in 0 W/m2
01:39 73.5 °F 64.3 °F 29.84 in Calm     73% 0.00 in 0 W/m2
01:44 73.4 °F 64.5 °F 29.84 in Calm     73.5% 0.00 in 0 W/m2
01:49 73.3 °F 64.4 °F 29.84 in Calm     73.7% 0.00 in 0 W/m2
01:54 73.1 °F 64 °F 29.84 in NW 0.2 mph 3 mph 73% 0.00 in 0 W/m2
01:59 73 °F 63.9 °F 29.83 in Calm   3 mph 73.3% 0.00 in 0 W/m2
02:04 72.8 °F 64.1 °F 29.83 in Calm   3 mph 74% 0.00 in 0 W/m2
02:09 72.7 °F 63.9 °F 29.83 in Calm     74% 0.00 in 0 W/m2
02:14 72.5 °F 63.9 °F 29.83 in Calm     74.3% 0.00 in 0 W/m2
02:19 72.4 °F 63.8 °F 29.83 in Calm     74.5% 0.00 in 0 W/m2
02:24 72.2 °F 63.8 °F 29.83 in Calm     75% 0.00 in 0 W/m2
02:29 72 °F 63.8 °F 29.83 in Calm     75.4% 0.00 in 0 W/m2
02:34 71.7 °F 63.8 °F 29.83 in Calm     76% 0.00 in 0 W/m2
02:39 71.5 °F 63.7 °F 29.83 in Calm     76.3% 0.00 in 0 W/m2
02:44 71.3 °F 63.7 °F 29.83 in Calm     77% 0.00 in 0 W/m2
02:49 71.1 °F 63.7 °F 29.83 in Calm     77.3% 0.00 in 0 W/m2
02:54 70.9 °F 63.8 °F 29.82 in Calm     78% 0.00 in 0 W/m2
02:59 70.8 °F 63.9 °F 29.82 in Calm     78.8% 0.00 in 0 W/m2
03:04 70.6 °F 63.9 °F 29.82 in Calm     79.3% 0.00 in 0 W/m2
03:09 70.5 °F 64 °F 29.82 in Calm     80% 0.00 in 0 W/m2
03:14 70.2 °F 64 °F 29.82 in Calm     80.5% 0.00 in 0 W/m2
03:19 70 °F 63.9 °F 29.82 in Calm     81% 0.00 in 0 W/m2
03:24 69.8 °F 63.7 °F 29.82 in Calm     81.1% 0.00 in 0 W/m2
03:29 69.6 °F 63.9 °F 29.82 in Calm     82% 0.00 in 0 W/m2
03:34 69.4 °F 63.7 °F 29.82 in Calm     82% 0.00 in 0 W/m2
03:39 69.3 °F 63.6 °F 29.82 in Calm     82.2% 0.00 in 0 W/m2
03:44 69.1 °F 63.8 °F 29.82 in Calm     83% 0.00 in 0 W/m2
03:49 68.9 °F 63.8 °F 29.81 in Calm     83.7% 0.00 in 0 W/m2
03:54 68.7 °F 63.7 °F 29.81 in Calm     84% 0.00 in 0 W/m2
03:59 68.5 °F 63.5 °F 29.81 in Calm     84% 0.00 in 0 W/m2
04:04 68.4 °F 63.7 °F 29.81 in Calm     85% 0.00 in 0 W/m2
04:09 68.3 °F 63.3 °F 29.81 in Calm     84.1% 0.00 in 0 W/m2
04:14 68.2 °F 63.2 °F 29.80 in Calm     84% 0.00 in 0 W/m2
04:19 68.1 °F 63.1 °F 29.79 in Calm     84% 0.00 in 0 W/m2
04:24 68.1 °F 63.4 °F 29.79 in Calm     85% 0.00 in 0 W/m2
04:29 68 °F 63.4 °F 29.78 in Calm     85% 0.00 in 0 W/m2
04:34 67.9 °F 63.3 °F 29.78 in Calm     85% 0.00 in 0 W/m2
04:39 67.9 °F 63.2 °F 29.78 in Calm     85% 0.00 in 0 W/m2
04:44 67.7 °F 63.1 °F 29.77 in Calm     85% 0.00 in 0 W/m2
04:49 67.6 °F 63.2 °F 29.78 in Calm     85.8% 0.00 in 0 W/m2
04:54 67.5 °F 63.2 °F 29.78 in Calm     86% 0.00 in 0 W/m2
04:59 67.4 °F 63.3 °F 29.78 in Calm     86.5% 0.00 in 0 W/m2
05:04 67.3 °F 63.3 °F 29.77 in Calm     87% 0.00 in 0 W/m2
05:09 67.2 °F 63.2 °F 29.78 in Calm     87% 0.00 in 0 W/m2
05:14 67.1 °F 63.1 °F 29.78 in Calm   1 mph 87% 0.00 in 0 W/m2
05:19 67 °F 63.1 °F 29.78 in Calm   1 mph 87.2% 0.00 in 0 W/m2
05:24 66.9 °F 63.2 °F 29.78 in Calm   1 mph 88% 0.00 in 0 W/m2
05:29 66.8 °F 63.1 °F 29.78 in Calm   1 mph 88% 0.00 in 0 W/m2
05:34 66.7 °F 63 °F 29.78 in Calm   1 mph 88% 0.00 in 0 W/m2
05:39 66.6 °F 62.9 °F 29.78 in Calm     88% 0.00 in 0 W/m2
05:44 66.6 °F 63 °F 29.79 in Calm   1 mph 88.2% 0.00 in 0 W/m2
05:49 66.6 °F 62.9 °F 29.79 in Calm   1 mph 88% 0.00 in 7 W/m2
05:54 66.5 °F 62.8 °F 29.79 in Calm   1 mph 88% 0.00 in 9 W/m2
05:59 66.5 °F 62.8 °F 29.79 in Calm   1 mph 88% 0.00 in 12 W/m2
06:04 66.5 °F 62.8 °F 29.80 in Calm   1 mph 88% 0.00 in 19 W/m2
06:09 66.5 °F 63.1 °F 29.80 in Calm     88.9% 0.00 in 25 W/m2
06:14 66.5 °F 63.2 °F 29.80 in Calm     89% 0.00 in 25 W/m2
06:19 66.6 °F 63.3 °F 29.80 in Calm     89% 0.00 in 28 W/m2
06:24 66.7 °F 63.3 °F 29.81 in Calm     89% 0.00 in 33 W/m2
06:29 66.8 °F 63.4 °F 29.81 in Calm     89% 0.00 in 39 W/m2
06:34 66.9 °F 63.6 °F 29.81 in Calm     89% 0.00 in 42 W/m2
06:39 67.1 °F 63.7 °F 29.81 in Calm     89% 0.00 in 47 W/m2
06:44 67.3 °F 63.9 °F 29.81 in Calm     89% 0.00 in 47 W/m2
06:49 67.5 °F 64.2 °F 29.82 in Calm     89% 0.00 in 44 W/m2
06:54 67.8 °F 64.3 °F 29.82 in Calm     88.5% 0.00 in 60 W/m2
06:59 68.1 °F 64.5 °F 29.82 in Calm     88.2% 0.00 in 70 W/m2
07:04 68.5 °F 64.8 °F 29.83 in Calm     88% 0.00 in 74 W/m2
07:09 68.9 °F 65.2 °F 29.83 in Calm     88% 0.00 in 86 W/m2
07:14 69.4 °F 65.4 °F 29.83 in Calm     87.1% 0.00 in 104 W/m2
07:19 69.9 °F 65.6 °F 29.83 in Calm     86% 0.00 in 105 W/m2
07:24 70.5 °F 66.1 °F 29.83 in Calm     86% 0.00 in 125 W/m2
07:29 71.1 °F 66.4 °F 29.83 in Calm     85.1% 0.00 in 148 W/m2
07:34 71.6 °F 66.3 °F 29.83 in Calm     83.4% 0.00 in 148 W/m2
07:39 72 °F 66.4 °F 29.83 in Calm     82.4% 0.00 in 151 W/m2
07:44 72.3 °F 66.3 °F 29.84 in Calm     81.4% 0.00 in 176 W/m2
07:49 72.6 °F 66.5 °F 29.84 in Calm     81% 0.00 in 204 W/m2
07:54 72.9 °F 66.2 °F 29.84 in Calm     79.5% 0.00 in 237 W/m2
07:59 73.3 °F 65.6 °F 29.84 in Calm     77% 0.00 in 241 W/m2
08:00 73.5 °F 65.9 °F 29.84 in Calm     77% 0.00 in 241 W/m2
08:09 73.9 °F 65.5 °F 29.84 in NW 0.1 mph 2 mph 74.9% 0.00 in 244 W/m2
08:14 74.2 °F 65.5 °F 29.84 in NW 0.5 mph 5 mph 74.3% 0.00 in 285 W/m2
08:19 74.5 °F 66 °F 29.84 in NW 0.3 mph 5 mph 74.9% 0.00 in 301 W/m2
08:24 74.9 °F 66 °F 29.84 in WNW 1.5 mph 7 mph 73.9% 0.00 in 287 W/m2
08:29 74.9 °F 65.3 °F 29.85 in Calm   7 mph 72% 0.00 in 156 W/m2
08:34 74.7 °F 65.3 °F 29.84 in Calm   7 mph 72.6% 0.00 in 155 W/m2
08:39 74.4 °F 65.2 °F 29.85 in WNW 0.1 mph 1 mph 73% 0.00 in 156 W/m2
08:44 74.2 °F 65.2 °F 29.85 in Calm   1 mph 73.7% 0.00 in 213 W/m2
08:49 74.2 °F 66.1 °F 29.85 in Calm   1 mph 76% 0.00 in 221 W/m2
08:54 74.3 °F 66.2 °F 29.85 in Calm   1 mph 75.9% 0.00 in 192 W/m2
08:59 74.4 °F 65.6 °F 29.85 in WNW 1.1 mph 5 mph 74.1% 0.00 in 144 W/m2
09:04 74.2 °F 64.9 °F 29.84 in West 2 mph 9 mph 72.6% 0.00 in 197 W/m2
09:09 74.1 °F 65.2 °F 29.85 in WNW 0.8 mph 9 mph 73.8% 0.00 in 482 W/m2
09:14 74.5 °F 65.9 °F 29.85 in WNW 0.5 mph 9 mph 74.5% 0.00 in 345 W/m2
09:19 74.8 °F 65.8 °F 29.85 in WNW 0.5 mph 9 mph 73.5% 0.00 in 341 W/m2
09:24 75 °F 65.5 °F 29.85 in WNW 0.7 mph 9 mph 72.5% 0.00 in 186 W/m2
09:29 75 °F 65.9 °F 29.85 in WNW 0.3 mph 9 mph 73.4% 0.00 in 190 W/m2
09:34 74.9 °F 65.8 °F 29.85 in WNW 0.4 mph 9 mph 73.3% 0.00 in 190 W/m2
09:39 74.7 °F 65.5 °F 29.85 in NW 2.7 mph 10 mph 73% 0.00 in 338 W/m2
09:44 74.6 °F 65.3 °F 29.85 in WNW 2.3 mph 10 mph 73% 0.00 in 338 W/m2
09:49 74.6 °F 65.6 °F 29.85 in WNW 0.2 mph 10 mph 73.7% 0.00 in 515 W/m2
09:54 75.1 °F 66.7 °F 29.85 in WNW 0.3 mph 10 mph 75.1% 0.00 in 517 W/m2
09:59 75.9 °F 67.6 °F 29.85 in WNW 0.1 mph 10 mph 75.6% 0.00 in 519 W/m2
10:04 76.6 °F 67.2 °F 29.85 in WNW 1.9 mph 10 mph 72.7% 0.00 in 540 W/m2
10:09 77 °F 66.6 °F 29.85 in West 3.3 mph 9 mph 70.5% 0.00 in 563 W/m2
10:14 77.3 °F 67 °F 29.85 in WNW 1 mph 9 mph 70.7% 0.00 in 580 W/m2
10:19 77.7 °F 67.3 °F 29.85 in NW 0.8 mph 9 mph 70.4% 0.00 in 573 W/m2
10:24 77.9 °F 67.5 °F 29.85 in WNW 2.8 mph 9 mph 70.4% 0.00 in 571 W/m2
10:29 78.1 °F 67.1 °F 29.85 in West 3 mph 11 mph 69.2% 0.00 in 568 W/m2
10:34 78.2 °F 66.8 °F 29.85 in WNW 3.5 mph 11 mph 68.1% 0.00 in 582 W/m2
10:39 78.2 °F 67 °F 29.85 in NNW 2.9 mph 9 mph 68.5% 0.00 in 617 W/m2
10:44 78.6 °F 67.3 °F 29.85 in NNW 1.7 mph 9 mph 68.3% 0.00 in 633 W/m2
10:49 78.8 °F 67.8 °F 29.85 in North 2.9 mph 12 mph 69% 0.00 in 647 W/m2
10:54 79.1 °F 67.7 °F 29.85 in NW 1.9 mph 12 mph 68.2% 0.00 in 647 W/m2
10:59 79.2 °F 68 °F 29.85 in North 1.1 mph 12 mph 68.6% 0.00 in 645 W/m2
11:04 79.4 °F 67.6 °F 29.85 in NNW 2.7 mph 12 mph 67.3% 0.00 in 666 W/m2
11:09 79.5 °F 67.7 °F 29.85 in North 2.3 mph 10 mph 67.2% 0.00 in 686 W/m2
11:14 79.4 °F 67.6 °F 29.85 in NNW 0.6 mph 10 mph 67.1% 0.00 in 687 W/m2
11:19 79.5 °F 67.5 °F 29.85 in North 0.5 mph 10 mph 66.7% 0.00 in 687 W/m2
11:24 79.4 °F 67.6 °F 29.85 in Calm   10 mph 67.2% 0.00 in 726 W/m2
11:29 79.4 °F 68 °F 29.85 in NE 1.1 mph 10 mph 68.1% 0.00 in 738 W/m2
11:34 79.6 °F 66.9 °F 29.85 in ENE 1 mph 10 mph 65.3% 0.00 in 327 W/m2
11:39 79.6 °F 67.3 °F 29.85 in NNE 2.4 mph 5 mph 66.2% 0.00 in 754 W/m2
11:44 79.7 °F 68 °F 29.85 in NNW 0.7 mph 5 mph 67.5% 0.00 in 754 W/m2
11:49 79.8 °F 67.1 °F 29.85 in North 0.4 mph 5 mph 65.3% 0.00 in 687 W/m2
11:54 79.9 °F 67.8 °F 29.85 in NW 2.6 mph 6 mph 66.7% 0.00 in 800 W/m2
11:59 80.3 °F 67.4 °F 29.85 in NW 2.7 mph 6 mph 64.9% 0.00 in 780 W/m2
12:00 80.5 °F 67.2 °F 29.85 in Calm   6 mph 64% 0.00 in 745 W/m2
12:09 81.5 °F 68.9 °F 29.85 in Calm   2 mph 65.7% 0.00 in 814 W/m2
12:14 81.6 °F 68.3 °F 29.85 in NW 0.9 mph 4 mph 64% 0.00 in 425 W/m2
12:19 81.6 °F 68.2 °F 29.84 in NW 3.2 mph 9 mph 63.9% 0.00 in 805 W/m2
12:24 81.7 °F 68.6 °F 29.84 in WNW 2 mph 9 mph 64.6% 0.00 in 812 W/m2
12:29 81.9 °F 68.1 °F 29.84 in WNW 2.6 mph 9 mph 63.1% 0.00 in 863 W/m2
12:34 82.2 °F 68.8 °F 29.84 in North 1.1 mph 9 mph 63.9% 0.00 in 895 W/m2
12:39 82.6 °F 68.7 °F 29.84 in NNW 1.5 mph 6 mph 63% 0.00 in 928 W/m2
12:44 82.7 °F 68.4 °F 29.84 in WNW 2 mph 7 mph 62.1% 0.00 in 327 W/m2
12:49 82.5 °F 67.3 °F 29.84 in WNW 2.6 mph 7 mph 60.3% 0.00 in 872 W/m2
12:54 82.2 °F 66.9 °F 29.84 in NW 3 mph 10 mph 59.9% 0.00 in 872 W/m2
12:59 82.1 °F 67.5 °F 29.84 in NW 2.7 mph 10 mph 61.2% 0.00 in 902 W/m2
13:04 82.3 °F 68.2 °F 29.83 in NNW 1.8 mph 10 mph 62.3% 0.00 in 858 W/m2
13:09 82.5 °F 68.5 °F 29.83 in NNW 1.7 mph 5 mph 62.7% 0.00 in 387 W/m2
13:14 82.2 °F 67.7 °F 29.83 in NNW 2.1 mph 7 mph 61.5% 0.00 in 387 W/m2
13:19 81.9 °F 67.2 °F 29.83 in NW 2.1 mph 7 mph 61.1% 0.00 in 708 W/m2
13:24 81.8 °F 68 °F 29.83 in NW 1.5 mph 7 mph 63.1% 0.00 in 708 W/m2
13:29 81.8 °F 67.5 °F 29.83 in NW 1.7 mph 7 mph 61.9% 0.00 in 432 W/m2
13:34 81.7 °F 67.4 °F 29.83 in West 2.3 mph 9 mph 61.9% 0.00 in 267 W/m2
13:39 81.4 °F 66.7 °F 29.83 in West 4.8 mph 10 mph 61.2% 0.00 in 232 W/m2
13:44 81 °F 66.8 °F 29.83 in West 1.6 mph 10 mph 62% 0.00 in 204 W/m2
13:49 80.7 °F 66.8 °F 29.82 in West 0.1 mph 10 mph 62.7% 0.00 in 156 W/m2
13:54 80.5 °F 67.2 °F 29.82 in West 0.7 mph 10 mph 64.1% 0.00 in 116 W/m2
13:59 80.2 °F 66.8 °F 29.82 in WNW 1.7 mph 10 mph 63.6% 0.00 in 111 W/m2
14:04 80 °F 66.5 °F 29.82 in NW 0.8 mph 10 mph 63.4% 0.00 in 113 W/m2
14:09 79.8 °F 66.7 °F 29.82 in West 1.8 mph 6 mph 64.3% 0.00 in 111 W/m2
14:14 79.6 °F 66.5 °F 29.83 in WNW 1.1 mph 6 mph 64.3% 0.00 in 107 W/m2
14:19 79.5 °F 66.7 °F 29.83 in WNW 0.4 mph 6 mph 64.9% 0.00 in 118 W/m2
14:24 79.3 °F 66.9 °F 29.83 in WNW 2.5 mph 7 mph 65.7% 0.00 in 142 W/m2
14:29 79.2 °F 66.6 °F 29.82 in Calm   7 mph 65.4% 0.00 in 142 W/m2
14:34 79.1 °F 66.6 °F 29.82 in WNW 0.2 mph 7 mph 65.6% 0.00 in 156 W/m2
14:39 79.2 °F 67.1 °F 29.82 in Calm   2 mph 66.7% 0.00 in 279 W/m2
14:44 79.4 °F 68.2 °F 29.83 in WNW 0.1 mph 4 mph 68.7% 0.00 in 768 W/m2
14:49 79.9 °F 68.3 °F 29.82 in Calm   4 mph 67.7% 0.00 in 791 W/m2
14:54 80.5 °F 67.6 °F 29.82 in WNW 1.1 mph 6 mph 64.8% 0.00 in 237 W/m2
14:59 80.8 °F 67.3 °F 29.82 in WNW 0.5 mph 6 mph 63.6% 0.00 in 202 W/m2
15:04 80.9 °F 67.1 °F 29.82 in WNW 0.1 mph 6 mph 62.9% 0.00 in 338 W/m2
15:09 81.1 °F 67.6 °F 29.82 in Calm   1 mph 63.7% 0.00 in 571 W/m2
15:14 81.3 °F 68.1 °F 29.82 in WNW 0.3 mph 3 mph 64.3% 0.00 in 571 W/m2
15:19 81.4 °F 67.7 °F 29.82 in WNW 0.7 mph 3 mph 63.4% 0.00 in 227 W/m2
15:24 81.3 °F 68.3 °F 29.82 in NW 2.2 mph 6 mph 64.6% 0.00 in 710 W/m2
15:29 81.4 °F 68.1 °F 29.82 in NW 2.5 mph 9 mph 64% 0.00 in 842 W/m2
15:34 81.9 °F 67.7 °F 29.81 in NW 3.4 mph 9 mph 62.3% 0.00 in 842 W/m2
15:39 82.4 °F 67.7 °F 29.81 in NW 5.5 mph 13 mph 61.1% 0.00 in 765 W/m2
15:44 82.7 °F 67.7 °F 29.81 in NW 2.1 mph 13 mph 60.6% 0.00 in 744 W/m2
15:49 82.9 °F 67.8 °F 29.81 in NW 4.1 mph 13 mph 60.5% 0.00 in 737 W/m2
15:54 83 °F 67.5 °F 29.82 in NNW 4.6 mph 13 mph 59.4% 0.00 in 766 W/m2
15:59 83 °F 67 °F 29.81 in WNW 2.4 mph 13 mph 58.6% 0.00 in 766 W/m2
16:00 82.9 °F 67.1 °F 29.81 in Calm   13 mph 59% 0.00 in 691 W/m2
16:09 82.9 °F 67.2 °F 29.81 in NNW 3.1 mph 10 mph 59.2% 0.00 in 650 W/m2
16:14 82.9 °F 66.7 °F 29.81 in NW 3.8 mph 10 mph 58.2% 0.00 in 622 W/m2
16:19 82.6 °F 66.3 °F 29.81 in NNW 3.1 mph 10 mph 57.9% 0.00 in 519 W/m2
16:24 82.4 °F 66.9 °F 29.80 in NNW 3.8 mph 10 mph 59.5% 0.00 in 113 W/m2
16:29 82 °F 66.2 °F 29.80 in NNW 4.2 mph 10 mph 59% 0.00 in 125 W/m2
16:34 81.5 °F 66.2 °F 29.80 in NNW 3.5 mph 10 mph 59.8% 0.00 in 135 W/m2
16:39 81.2 °F 66.3 °F 29.80 in NNW 3.7 mph 12 mph 60.7% 0.00 in 118 W/m2
16:44 81.1 °F 66.3 °F 29.81 in NW 2.9 mph 12 mph 60.7% 0.00 in 111 W/m2
16:49 81.2 °F 66.1 °F 29.81 in WNW 4 mph 12 mph 60.2% 0.00 in 86 W/m2
16:54 81.2 °F 66 °F 29.81 in West 3.2 mph 12 mph 60% 0.00 in 81 W/m2
16:59 81.2 °F 66.2 °F 29.81 in WNW 2.4 mph 12 mph 60.3% 0.00 in 79 W/m2
17:04 81.3 °F 66.7 °F 29.81 in WNW 2.6 mph 12 mph 61.3% 0.00 in 79 W/m2
17:09 81.4 °F 65.8 °F 29.81 in WNW 3.2 mph 11 mph 59.2% 0.00 in 77 W/m2
17:14 81.3 °F 66 °F 29.81 in NW 1.9 mph 11 mph 59.8% 0.00 in 76 W/m2
17:19 81.2 °F 65.9 °F 29.81 in WNW 2.6 mph 11 mph 59.7% 0.00 in 74 W/m2
17:24 81.2 °F 66 °F 29.81 in WNW 2.9 mph 11 mph 60% 0.00 in 72 W/m2
17:29 81.1 °F 65.4 °F 29.82 in West 3.9 mph 11 mph 58.8% 0.00 in 70 W/m2
17:34 81 °F 65.5 °F 29.82 in WNW 3.3 mph 11 mph 59.3% 0.00 in 69 W/m2
17:39 80.9 °F 65.3 °F 29.82 in NW 3.5 mph 10 mph 59.2% 0.00 in 67 W/m2
17:44 80.7 °F 64.9 °F 29.82 in WNW 3.8 mph 10 mph 58.6% 0.00 in 65 W/m2
17:49 80.4 °F 64.9 °F 29.83 in NW 4.8 mph 10 mph 59.2% 0.00 in 63 W/m2
17:54 80.2 °F 64.9 °F 29.82 in NNW 2 mph 10 mph 59.6% 0.00 in 60 W/m2
17:59 79.9 °F 64.9 °F 29.82 in NW 2.8 mph 10 mph 60.1% 0.00 in 58 W/m2
18:04 79.8 °F 64.8 °F 29.82 in WNW 2.3 mph 10 mph 60.2% 0.00 in 58 W/m2
18:09 79.6 °F 64.9 °F 29.82 in WNW 2.5 mph 10 mph 60.7% 0.00 in 54 W/m2
18:14 79.6 °F 64.5 °F 29.82 in West 1.5 mph 10 mph 59.9% 0.00 in 56 W/m2
18:19 79.7 °F 65 °F 29.82 in West 2.3 mph 10 mph 60.9% 0.00 in 54 W/m2
18:24 79.7 °F 64.9 °F 29.82 in West 1.7 mph 10 mph 60.7% 0.00 in 47 W/m2
18:29 79.8 °F 64.8 °F 29.82 in WNW 2.1 mph 10 mph 60.3% 0.00 in 44 W/m2
18:34 79.7 °F 64.8 °F 29.82 in WNW 2.1 mph 10 mph 60.4% 0.00 in 40 W/m2
18:39 79.5 °F 64.9 °F 29.82 in WNW 1.3 mph 6 mph 60.8% 0.00 in 39 W/m2
18:44 79.4 °F 64.6 °F 29.82 in WNW 1 mph 6 mph 60.5% 0.00 in 39 W/m2
18:49 79.3 °F 64.9 °F 29.82 in WNW 0.7 mph 6 mph 61.2% 0.00 in 40 W/m2
18:54 79.3 °F 65.1 °F 29.83 in WNW 1.6 mph 6 mph 62% 0.00 in 40 W/m2
18:59 79.1 °F 64.8 °F 29.83 in WNW 2.2 mph 6 mph 61.6% 0.00 in 39 W/m2
19:04 79 °F 64.9 °F 29.83 in WNW 0.3 mph 6 mph 62% 0.00 in 37 W/m2
19:09 78.9 °F 64.9 °F 29.83 in WNW 0.2 mph 5 mph 62.3% 0.00 in 32 W/m2
19:14 78.9 °F 65.1 °F 29.83 in WNW 0.1 mph 5 mph 62.7% 0.00 in 28 W/m2
19:19 78.7 °F 65 °F 29.83 in Calm   5 mph 62.8% 0.00 in 26 W/m2
19:24 78.6 °F 65.1 °F 29.84 in Calm   5 mph 63.3% 0.00 in 25 W/m2
19:29 78.5 °F 65.2 °F 29.84 in WNW 0.5 mph 5 mph 63.7% 0.00 in 21 W/m2
19:34 78.4 °F 65 °F 29.84 in WNW 0.7 mph 5 mph 63.6% 0.00 in 19 W/m2
19:39 78.1 °F 64.6 °F 29.84 in WNW 1.9 mph 5 mph 63.3% 0.00 in 14 W/m2
19:44 77.8 °F 64.6 °F 29.84 in NW 0.5 mph 5 mph 63.9% 0.00 in 14 W/m2
19:49 77.5 °F 64.4 °F 29.84 in NW 2.2 mph 6 mph 64% 0.00 in 12 W/m2
19:54 77.2 °F 64.1 °F 29.85 in WNW 2.8 mph 9 mph 64% 0.00 in 11 W/m2
19:59 76.8 °F 64 °F 29.85 in NW 1.9 mph 11 mph 64.6% 0.00 in 11 W/m2
20:09 76.2 °F 64 °F 29.85 in NW 1.7 mph 6 mph 66% 0.00 in 5 W/m2
20:14 75.9 °F 63.8 °F 29.85 in NW 1.5 mph 10 mph 66.2% 0.00 in 0 W/m2
20:19 75.6 °F 63.9 °F 29.85 in WNW 1.1 mph 10 mph 66.9% 0.00 in 0 W/m2
20:24 75.4 °F 63.9 °F 29.86 in NW 1.6 mph 10 mph 67.7% 0.00 in 0 W/m2
20:29 75.1 °F 63.8 °F 29.86 in NW 1 mph 10 mph 68% 0.00 in 0 W/m2
20:34 74.9 °F 63.8 °F 29.86 in NW 0.9 mph 10 mph 68.6% 0.00 in 0 W/m2
20:39 74.6 °F 63.8 °F 29.86 in NNW 1.6 mph 5 mph 69% 0.00 in 0 W/m2
20:44 74.4 °F 63.6 °F 29.87 in NNW 1.8 mph 11 mph 69% 0.00 in 0 W/m2
20:49 74.2 °F 63.4 °F 29.87 in NW 0.9 mph 11 mph 69% 0.00 in 0 W/m2
20:54 74.1 °F 63.3 °F 29.87 in NW 2 mph 11 mph 69% 0.00 in 0 W/m2
20:59 74 °F 63.2 °F 29.88 in NW 2.4 mph 11 mph 69% 0.00 in 0 W/m2
21:04 73.9 °F 63.1 °F 29.88 in NW 1.6 mph 11 mph 69% 0.00 in 0 W/m2
21:09 73.9 °F 63.1 °F 29.88 in NW 2.1 mph 9 mph 69% 0.00 in 0 W/m2
21:14 73.7 °F 63 °F 29.88 in NNW 0.7 mph 9 mph 69.1% 0.00 in 0 W/m2
21:19 73.6 °F 63.2 °F 29.88 in NNW 1.5 mph 9 mph 70% 0.00 in 0 W/m2
21:24 73.4 °F 63 °F 29.89 in NNW 0.9 mph 9 mph 70% 0.00 in 0 W/m2
21:29 73.3 °F 63.2 °F 29.88 in NNW 1.4 mph 9 mph 70.7% 0.00 in 0 W/m2
21:34 73.1 °F 63.1 °F 29.89 in NW 0.8 mph 9 mph 71% 0.00 in 0 W/m2
21:39 72.9 °F 63 °F 29.89 in NW 1.7 mph 9 mph 71% 0.00 in 0 W/m2
21:44 72.7 °F 62.8 °F 29.89 in NW 2.3 mph 9 mph 71% 0.00 in 0 W/m2
21:49 72.6 °F 62.6 °F 29.90 in NW 1.5 mph 9 mph 71% 0.00 in 0 W/m2
21:54 72.4 °F 62.5 °F 29.90 in NW 2.3 mph 9 mph 71% 0.00 in 0 W/m2
21:59 72.3 °F 62.4 °F 29.90 in NW 0.6 mph 9 mph 71% 0.00 in 0 W/m2
22:04 72.2 °F 62.3 °F 29.90 in NW 1.1 mph 9 mph 71.2% 0.00 in 0 W/m2
22:09 72.1 °F 62.4 °F 29.90 in NW 0.2 mph 7 mph 71.6% 0.00 in 0 W/m2
22:14 71.9 °F 62.4 °F 29.90 in NW 0.6 mph 7 mph 72% 0.00 in 0 W/m2
22:19 71.8 °F 62.3 °F 29.90 in NW 0.6 mph 7 mph 72% 0.00 in 0 W/m2
22:24 71.6 °F 62.3 °F 29.91 in NW 0.4 mph 7 mph 72.4% 0.00 in 0 W/m2
22:29 71.5 °F 62.3 °F 29.91 in NNW 0.5 mph 7 mph 72.7% 0.00 in 0 W/m2
22:34 71.3 °F 62.2 °F 29.91 in NNW 1 mph 7 mph 73% 0.00 in 0 W/m2
22:39 71.1 °F 62.1 °F 29.91 in NNW 1.8 mph 7 mph 73% 0.00 in 0 W/m2
22:44 71 °F 61.9 °F 29.92 in NW 1.2 mph 7 mph 73% 0.00 in 0 W/m2
22:49 70.8 °F 61.8 °F 29.92 in NW 0.5 mph 7 mph 73.1% 0.00 in 0 W/m2
22:54 70.7 °F 61.9 °F 29.92 in NW 1.5 mph 7 mph 73.8% 0.00 in 0 W/m2
22:59 70.6 °F 61.7 °F 29.92 in NNW 0.3 mph 7 mph 73.6% 0.00 in 0 W/m2
23:04 70.4 °F 61.7 °F 29.91 in NNW 0.1 mph 7 mph 73.9% 0.00 in 0 W/m2
23:09 70.3 °F 61.6 °F 29.92 in NNW 0.2 mph 4 mph 73.9% 0.00 in 0 W/m2
23:14 70.2 °F 61.5 °F 29.92 in Calm   4 mph 74% 0.00 in 0 W/m2
23:19 70.1 °F 61.4 °F 29.92 in NNW 0.2 mph 4 mph 74% 0.00 in 0 W/m2
23:24 69.9 °F 61.3 °F 29.92 in Calm   4 mph 74% 0.00 in 0 W/m2
23:29 69.8 °F 61.1 °F 29.92 in NNW 0.1 mph 4 mph 74% 0.00 in 0 W/m2
23:34 69.7 °F 61.2 °F 29.92 in NNW 0.4 mph 4 mph 74.6% 0.00 in 0 W/m2
23:39 69.5 °F 61.2 °F 29.92 in Calm   3 mph 75% 0.00 in 0 W/m2
23:44 69.4 °F 61.1 °F 29.92 in Calm   3 mph 75% 0.00 in 0 W/m2
23:49 69.2 °F 61 °F 29.92 in NNW 0.4 mph 5 mph 75% 0.00 in 0 W/m2
23:54 69.1 °F 60.8 °F 29.92 in NNW 0.2 mph 5 mph 75% 0.00 in 0 W/m2
23:59 68.9 °F 60.6 °F 29.92 in NNW 0.3 mph 5 mph 75% 0.00 in 0 W/m2
Hartford County Weather
Compliments of Weather Underground - 2 mb